• Join FlightAware (Why Join?)
  • Login
  • US Flag 
07:00AM EDT


 

Airport Tracker/Info


-or-


 

Live Flight TrackerFlight Track Log ✈ EGF2867 ✈ 11-May-2013 ✈ KLEX - KDFW

Flight Track Log - Related Links

Times and Time Zones

All times are in EDT time to prevent confusion due to time zone crossing. See the EGF2867 flight status page for this flight to view local times or setup timezone preferences in your user account.

Time Position Orientation Groundspeed Altitude Reporting Facility
EDT Latitude Longitude Course Direction KTS MPH feet Rate Location/Type
06:30AM 37.9894 -84.6533 290° West 198 228 3,100  Level Indianapolis Center
06:31AM 37.9633 -84.7217 244° Southwest 214 246 6,100 2,580 Climbing Indianapolis Center
06:32AM 37.9092 -84.6376 256° West  Level FlightAware Approximate
06:32AM 37.9450 -84.8019 254° West 231 266 8,400  Level Indianapolis Center
06:33AM 37.8862 -84.7522 256° West  Level FlightAware Approximate
06:33AM 37.9261 -84.8869 254° West 246 283 10,800  Level Indianapolis Center
06:34AM 37.8519 -84.8572 256° West  Level FlightAware Approximate
06:34AM 37.9044 -84.9753 253° West 257 296 12,400  Level Indianapolis Center
06:35AM 37.8791 -84.9686 290° West  Level FlightAware Approximate
06:35AM 37.8858 -85.0708 256° West 276 318 14,100  Level Indianapolis Center
06:36AM 37.8636 -85.1736 255° West 293 337 15,700 1,620 Climbing Indianapolis Center
06:37AM 37.8367 -85.2864 253° West 310 357 17,400 1,740 Climbing Indianapolis Center
06:38AM 37.8097 -85.4053 254° West 314 361 19,300 1,680 Climbing Indianapolis Center
06:39AM 37.7836 -85.5169 254° West 328 377 20,800 1,380 Climbing Indianapolis Center
06:40AM 37.7603 -85.6211 254° West 339 390 22,100 1,380 Climbing Indianapolis Center
06:41AM 37.7325 -85.7375 253° West 344 396 23,700 1,680 Climbing Indianapolis Center
06:42AM 37.7069 -85.8506 254° West 336 387 25,500 1,680 Climbing Indianapolis Center
06:43AM 37.6808 -85.9625 254° West 329 379 27,200 1,680 Climbing Indianapolis Center
06:44AM 37.6564 -86.0708 254° West 321 369 28,900 1,620 Climbing Indianapolis Center
06:45AM 37.6308 -86.1742 253° West 310 357 30,600 1,500 Climbing Indianapolis Center
06:46AM 37.6069 -86.2736 253° West 305 351 32,000 1,560 Climbing Indianapolis Center
06:47AM 37.5831 -86.3761 254° West 305 351 33,800 1,680 Climbing Indianapolis Center
06:48AM 37.5594 -86.4719 253° West 289 333 35,400 1,080 Climbing Indianapolis Center
06:49AM 37.5378 -86.5644 254° West 278 320 36,000 240 Climbing Indianapolis Center
06:50AM 37.5136 -86.6650 253° West 288 331 36,000  Level Indianapolis Center
06:51AM 37.4881 -86.7731 253° West 308 354 36,000  Level Indianapolis Center
06:52AM 37.4608 -86.8825 253° West 319 367 36,000  Level Indianapolis Center
06:53AM 37.4347 -86.9906 253° West 322 371 36,000  Level Indianapolis Center
06:54AM 37.4092 -87.0939 253° West 313 360 36,000  Level Indianapolis Center
06:55AM 37.3842 -87.1989 253° West 312 359 36,000  Level Indianapolis Center
06:56AM 37.3589 -87.3033 253° West 311 358 36,000  Level Indianapolis Center
06:57AM 37.3281 -87.4264 253° West 313 360 36,000  Level Indianapolis Center
06:58AM 37.3003 -87.5336 252° West 318 366 36,000  Level Indianapolis Center
06:59AM 37.2753 -87.6394 253° West 316 364 36,000  Level Indianapolis Center
07:00AM 37.2483 -87.7442 252° West 316 364 36,000  Level Indianapolis Center
07:01AM 37.2233 -87.8483 253° West 312 359 36,000  Level Indianapolis Center
07:02AM 37.1953 -87.9558 252° West 319 367 36,000  Level Indianapolis Center
07:04AM 37.1678 -88.0617 252° West 317 365 36,000  Level Indianapolis Center
07:05AM 37.1408 -88.1681 252° West 319 367 36,000  Level Indianapolis Center
07:06AM 37.1147 -88.2733 253° West 317 365 36,000  Level Indianapolis Center
07:07AM 37.0869 -88.3808 252° West 321 369 36,000  Level Indianapolis Center
07:08AM 37.0594 -88.4847 252° West 315 362 36,000  Level Indianapolis Center
07:09AM 37.0361 -88.5925 255° West 321 369 36,000  Level Memphis Center
07:10AM 37.0083 -88.6969 252° West 321 369 36,000  Level Memphis Center
07:11AM 36.9806 -88.8014 252° West 321 369 36,000  Level Memphis Center
07:12AM 36.9547 -88.9056 253° West 327 376 36,000  Level Memphis Center
07:13AM 36.9267 -89.0100 251° West 327 376 36,000  Level Memphis Center
07:14AM 36.8986 -89.1142 251° West 327 376 36,000  Level Memphis Center
07:15AM 36.8703 -89.2183 251° West 327 376 36,000  Level Memphis Center
07:16AM 36.8442 -89.3225 253° West 327 376 36,000  Level Memphis Center
07:17AM 36.8158 -89.4239 251° West 327 376 36,000  Level Memphis Center
07:18AM 36.7875 -89.5278 251° West 327 376 36,000  Level Memphis Center
07:19AM 36.7569 -89.6422 252° West 327 376 36,000  Level Memphis Center
07:20AM 36.7303 -89.7458 252° West 327 376 36,000  Level Memphis Center
07:21AM 36.6994 -89.8472 249° West 322 371 36,000  Level Memphis Center
07:22AM 36.6708 -89.9508 251° West 322 371 36,000  Level Memphis Center
07:23AM 36.6439 -90.0544 252° West 322 371 36,000  Level Memphis Center
07:24AM 36.6128 -90.1578 249° West 322 371 36,000  Level Memphis Center
07:25AM 36.5839 -90.2589 250° West 322 371 36,000  Level Memphis Center
07:26AM 36.5567 -90.3647 252° West 322 371 36,000  Level Memphis Center
07:27AM 36.5256 -90.4681 249° West 322 371 36,000  Level Memphis Center
07:28AM 36.4961 -90.5711 250° West 322 371 36,000  Level Memphis Center
07:29AM 36.4689 -90.6794 253° West 327 376 36,000  Level Memphis Center
07:30AM 36.4372 -90.7825 249° West 327 376 36,000  Level Memphis Center
07:31AM 36.4097 -90.8908 253° West 327 376 36,000  Level Memphis Center
07:32AM 36.3781 -90.9961 250° West 327 376 36,000  Level Memphis Center
07:33AM 36.3461 -91.1042 250° West 327 376 36,000  Level Memphis Center
07:34AM 36.3142 -91.2119 250° West 327 376 36,000  Level Memphis Center
07:35AM 36.2883 -91.3069 251° West 327 376 36,000  Level Memphis Center
07:36AM 36.2583 -91.4147 251° West 327 376 36,000  Level Memphis Center
07:37AM 36.2242 -91.5225 249° West 327 376 36,000  Level Memphis Center
07:38AM 36.1917 -91.6300 249° West 332 382 36,000  Level Memphis Center
07:39AM 36.1614 -91.7400 251° West 332 382 36,000  Level Memphis Center
07:40AM 36.1269 -91.8475 248° West 337 388 36,000  Level Memphis Center
07:41AM 36.0961 -91.9600 251° West 343 395 36,000  Level Memphis Center
07:42AM 36.0614 -92.0697 249° West 348 400 36,000  Level Memphis Center
07:43AM 36.0328 -92.1869 253° West 348 400 36,000  Level Memphis Center
07:44AM 35.9997 -92.2967 250° West 348 400 36,000  Level Memphis Center
07:45AM 35.9667 -92.4061 250° West 348 400 36,000  Level Memphis Center
07:46AM 35.9336 -92.5156 250° West 348 400 36,000  Level Memphis Center
07:47AM 35.9006 -92.6222 249° West 348 400 36,000  Level Memphis Center
07:48AM 35.8692 -92.7317 251° West 348 400 36,000  Level Memphis Center
07:49AM 35.8358 -92.8433 250° West 348 400 36,000  Level Memphis Center
07:50AM 35.8003 -92.9497 248° West 348 400 36,000  Level Memphis Center
07:51AM 35.7667 -93.0614 250° West 348 400 36,000  Level Memphis Center
07:52AM 35.7328 -93.1703 249° West 348 400 36,000  Level Memphis Center
07:53AM 35.6989 -93.2814 249° West 348 400 36,000  Level Memphis Center
07:54AM 35.6694 -93.3828 250° West 353 406 36,000  Level Memphis Center
07:55AM 35.6292 -93.4911 245° Southwest 353 406 36,000  Level Memphis Center
07:56AM 35.5767 -93.5886 237° Southwest 347 399 36,000  Level Memphis Center
07:57AM 35.5219 -93.6911 237° Southwest 352 405 36,000  Level Memphis Center
07:58AM 35.4711 -93.7911 238° Southwest 357 411 36,000  Level Memphis Center
07:59AM 35.4183 -93.8933 238° Southwest 357 411 36,000  Level Memphis Center
08:00AM 35.3675 -93.9956 239° Southwest 357 411 36,000  Level Memphis Center
08:01AM 35.3164 -94.0975 238° Southwest 357 411 36,000  Level Memphis Center
08:02AM 35.2611 -94.1969 236° Southwest 357 411 36,000  Level Memphis Center
08:03AM 35.2100 -94.3014 239° Southwest 357 411 36,000  Level Memphis Center
08:04AM 35.1567 -94.4053 238° Southwest 357 411 36,000  Level Memphis Center
08:06AM 35.0556 -94.6033 238° Southwest 359 413 36,000  Level Fort Worth Center
08:07AM 34.9972 -94.6992 233° Southwest 359 413 36,000  Level Fort Worth Center
08:08AM 34.9219 -94.7800 221° Southwest 359 413 36,000  Level Fort Worth Center
08:09AM 34.8506 -94.8606 223° Southwest 359 413 36,000  Level Fort Worth Center
08:10AM 34.7769 -94.9361 220° Southwest 354 407 36,000  Level Fort Worth Center
08:11AM 34.7033 -95.0164 222° Southwest 354 407 36,000  Level Fort Worth Center
08:12AM 34.6317 -95.0917 221° Southwest 349 402 36,000  Level Fort Worth Center
08:13AM 34.5519 -95.1772 221° Southwest 357 411 36,000  Level Fort Worth Center
08:14AM 34.4864 -95.2469 221° Southwest 357 411 36,000  Level Fort Worth Center
08:15AM 34.4167 -95.3217 221° Southwest 357 411 36,000  Level Fort Worth Center
08:16AM 34.3431 -95.3989 221° Southwest 357 411 36,000  Level Fort Worth Center
08:17AM 34.2669 -95.4783 221° Southwest 363 418 36,000  Level Fort Worth Center
08:18AM 34.1950 -95.5528 221° Southwest 354 407 36,000  Level Fort Worth Center
08:19AM 34.1108 -95.6375 220° Southwest 359 413 36,000  Level Fort Worth Center
08:20AM 34.0408 -95.7142 222° Southwest 349 402 36,000 -600 Level Fort Worth Center
08:21AM 33.9750 -95.7831 221° Southwest 354 407 34,800 -1,800 Descending Fort Worth Center
08:22AM 33.8967 -95.8619 220° Southwest 366 421 32,400 -2,640 Descending Fort Worth Center
08:23AM 33.8164 -95.9458 221° Southwest 360 414 29,600 -2,520 Descending Fort Worth Center
08:24AM 33.7381 -96.0297 222° Southwest 360 414 27,400 -2,460 Descending Fort Worth Center
08:25AM 33.6511 -96.1158 220° Southwest 393 452 24,700 -2,700 Descending Fort Worth Center
08:26AM 33.5644 -96.2069 221° Southwest 404 465 22,100 -2,820 Descending Fort Worth Center
08:27AM 33.4839 -96.3003 224° Southwest 412 474 19,100 -2,580 Descending Fort Worth Center
08:28AM 33.4075 -96.3906 225° Southwest 398 458 17,000 -2,220 Descending Fort Worth Center
08:29AM 33.3372 -96.4761 225° Southwest 376 433 14,700 -2,280 Descending Fort Worth Center
08:30AM 33.2625 -96.5639 224° Southwest 381 438 12,500 -1,860 Descending Fort Worth Center
08:31AM 33.1922 -96.6514 226° Southwest 381 438 11,000 -780 Descending Fort Worth Center
08:32AM 33.1175 -96.7339 223° Southwest 367 422 11,000  Level Fort Worth Center
08:32AM 33.0833 -96.7833 230° Southwest 368 423 11,000  Level Dallas / Fort Worth TRACON
08:33AM 33.0167 -96.8500 220° Southwest 269 310 11,000  Level Dallas / Fort Worth TRACON
08:34AM 32.9500 -96.9000 212° Southwest 259 298 11,000 -600 Level Dallas / Fort Worth TRACON
08:35AM 32.9000 -96.9000 180° South 254 292 9,800 -1,620 Descending Dallas / Fort Worth TRACON
08:36AM 32.8167 -96.9000 180° South 239 275 7,800 -2,220 Descending Dallas / Fort Worth TRACON
08:37AM 32.7500 -96.9000 180° South 242 278 5,200 -2,160 Descending Dallas / Fort Worth TRACON
08:38AM 32.7000 -96.9167 196° South 244 281 3,700 -1,140 Descending Dallas / Fort Worth TRACON
08:39AM 32.7167 -96.9833 287° West 202 232 3,000 -420 Descending Dallas / Fort Worth TRACON
08:40AM 32.7500 -97.0000 337° Northwest 174 200 2,900 -120 Descending Dallas / Fort Worth TRACON